sensor_id;sensor_type;location;lat;lon;timestamp;temperature;humidity
22838;DHT22;11585;51.450;-0.240;2023-05-19T00:00:15;16.50;99.90
22838;DHT22;11585;51.450;-0.240;2023-05-19T00:02:41;16.50;99.90
22838;DHT22;11585;51.450;-0.240;2023-05-19T00:05:09;16.50;99.90
22838;DHT22;11585;51.450;-0.240;2023-05-19T00:07:37;16.50;99.90
22838;DHT22;11585;51.450;-0.240;2023-05-19T00:10:08;16.40;99.90
22838;DHT22;11585;51.450;-0.240;2023-05-19T00:12:35;16.40;99.90
22838;DHT22;11585;51.450;-0.240;2023-05-19T00:15:08;16.40;99.90
22838;DHT22;11585;51.450;-0.240;2023-05-19T00:17:35;16.50;99.90
22838;DHT22;11585;51.450;-0.240;2023-05-19T00:20:06;16.40;99.90
22838;DHT22;11585;51.450;-0.240;2023-05-19T00:22:32;16.40;99.90
22838;DHT22;11585;51.450;-0.240;2023-05-19T00:24:58;16.30;99.90
22838;DHT22;11585;51.450;-0.240;2023-05-19T00:27:24;16.30;99.90
22838;DHT22;11585;51.450;-0.240;2023-05-19T00:36:34;16.20;99.90
22838;DHT22;11585;51.450;-0.240;2023-05-19T00:39:02;16.20;99.90
22838;DHT22;11585;51.450;-0.240;2023-05-19T00:41:28;16.20;99.90
22838;DHT22;11585;51.450;-0.240;2023-05-19T00:43:54;16.20;99.90
22838;DHT22;11585;51.450;-0.240;2023-05-19T00:46:25;16.20;99.90
22838;DHT22;11585;51.450;-0.240;2023-05-19T00:49:10;16.10;99.90
22838;DHT22;11585;51.450;-0.240;2023-05-19T00:51:36;16.10;99.90
22838;DHT22;11585;51.450;-0.240;2023-05-19T00:54:04;16.10;99.90
22838;DHT22;11585;51.450;-0.240;2023-05-19T00:56:30;16.10;99.90
22838;DHT22;11585;51.450;-0.240;2023-05-19T00:59:15;16.10;99.90
22838;DHT22;11585;51.450;-0.240;2023-05-19T01:01:41;16.10;99.90
22838;DHT22;11585;51.450;-0.240;2023-05-19T01:04:07;16.00;99.90
22838;DHT22;11585;51.450;-0.240;2023-05-19T01:06:35;16.00;99.90
22838;DHT22;11585;51.450;-0.240;2023-05-19T01:12:26;16.00;99.90
22838;DHT22;11585;51.450;-0.240;2023-05-19T01:14:52;16.00;99.90
22838;DHT22;11585;51.450;-0.240;2023-05-19T01:17:33;15.90;99.90
22838;DHT22;11585;51.450;-0.240;2023-05-19T01:20:19;15.90;99.90
22838;DHT22;11585;51.450;-0.240;2023-05-19T01:23:19;15.90;99.90
22838;DHT22;11585;51.450;-0.240;2023-05-19T01:31:44;15.80;99.90
22838;DHT22;11585;51.450;-0.240;2023-05-19T01:34:12;15.80;99.90
22838;DHT22;11585;51.450;-0.240;2023-05-19T01:36:40;15.80;99.90
22838;DHT22;11585;51.450;-0.240;2023-05-19T01:39:10;15.70;99.90
22838;DHT22;11585;51.450;-0.240;2023-05-19T01:41:37;15.70;99.90
22838;DHT22;11585;51.450;-0.240;2023-05-19T01:44:06;15.70;99.90
22838;DHT22;11585;51.450;-0.240;2023-05-19T01:46:33;15.70;99.90
22838;DHT22;11585;51.450;-0.240;2023-05-19T01:49:00;15.70;99.90
22838;DHT22;11585;51.450;-0.240;2023-05-19T01:51:26;15.70;99.90
22838;DHT22;11585;51.450;-0.240;2023-05-19T01:53:52;15.70;99.90
22838;DHT22;11585;51.450;-0.240;2023-05-19T01:56:34;15.60;99.90
22838;DHT22;11585;51.450;-0.240;2023-05-19T01:59:26;15.60;99.90
22838;DHT22;11585;51.450;-0.240;2023-05-19T02:01:59;15.60;99.90
22838;DHT22;11585;51.450;-0.240;2023-05-19T02:04:48;15.60;99.90
22838;DHT22;11585;51.450;-0.240;2023-05-19T02:07:51;15.60;99.90
22838;DHT22;11585;51.450;-0.240;2023-05-19T02:10:24;15.50;99.90
22838;DHT22;11585;51.450;-0.240;2023-05-19T02:12:52;15.50;99.90
22838;DHT22;11585;51.450;-0.240;2023-05-19T02:15:24;15.50;99.90
22838;DHT22;11585;51.450;-0.240;2023-05-19T02:17:54;15.50;99.90
22838;DHT22;11585;51.450;-0.240;2023-05-19T02:23:41;15.50;99.90
22838;DHT22;11585;51.450;-0.240;2023-05-19T02:26:07;15.40;99.90
22838;DHT22;11585;51.450;-0.240;2023-05-19T02:28:54;15.40;99.90
22838;DHT22;11585;51.450;-0.240;2023-05-19T02:31:20;15.40;99.90
22838;DHT22;11585;51.450;-0.240;2023-05-19T02:33:48;15.40;99.90
22838;DHT22;11585;51.450;-0.240;2023-05-19T02:36:14;15.40;99.90
22838;DHT22;11585;51.450;-0.240;2023-05-19T02:38:41;15.40;99.90
22838;DHT22;11585;51.450;-0.240;2023-05-19T02:41:06;15.50;99.90
22838;DHT22;11585;51.450;-0.240;2023-05-19T02:43:32;15.30;99.90
22838;DHT22;11585;51.450;-0.240;2023-05-19T02:45:57;15.30;99.90
22838;DHT22;11585;51.450;-0.240;2023-05-19T02:48:23;15.30;99.90
22838;DHT22;11585;51.450;-0.240;2023-05-19T02:50:49;15.30;99.90
22838;DHT22;11585;51.450;-0.240;2023-05-19T02:53:14;15.30;99.90
22838;DHT22;11585;51.450;-0.240;2023-05-19T02:55:41;15.20;99.90
22838;DHT22;11585;51.450;-0.240;2023-05-19T02:58:06;15.20;99.90
22838;DHT22;11585;51.450;-0.240;2023-05-19T03:03:54;15.30;99.90
22838;DHT22;11585;51.450;-0.240;2023-05-19T03:09:42;15.20;99.90
22838;DHT22;11585;51.450;-0.240;2023-05-19T03:12:08;15.20;99.90
22838;DHT22;11585;51.450;-0.240;2023-05-19T03:14:34;15.20;99.90
22838;DHT22;11585;51.450;-0.240;2023-05-19T03:17:03;15.20;99.90
22838;DHT22;11585;51.450;-0.240;2023-05-19T03:19:48;15.20;99.90
22838;DHT22;11585;51.450;-0.240;2023-05-19T03:22:15;15.20;99.90
22838;DHT22;11585;51.450;-0.240;2023-05-19T03:24:43;15.10;99.90
22838;DHT22;11585;51.450;-0.240;2023-05-19T03:27:08;15.10;99.90
22838;DHT22;11585;51.450;-0.240;2023-05-19T03:29:53;15.10;99.90
22838;DHT22;11585;51.450;-0.240;2023-05-19T03:32:18;15.10;99.90
22838;DHT22;11585;51.450;-0.240;2023-05-19T03:34:47;15.10;99.90
22838;DHT22;11585;51.450;-0.240;2023-05-19T03:37:13;15.10;99.90
22838;DHT22;11585;51.450;-0.240;2023-05-19T03:39:40;15.10;99.90
22838;DHT22;11585;51.450;-0.240;2023-05-19T03:42:06;15.10;99.90
22838;DHT22;11585;51.450;-0.240;2023-05-19T03:44:32;15.00;99.90
22838;DHT22;11585;51.450;-0.240;2023-05-19T03:46:57;15.10;99.90
22838;DHT22;11585;51.450;-0.240;2023-05-19T03:52:28;15.10;99.90
22838;DHT22;11585;51.450;-0.240;2023-05-19T03:54:57;15.00;99.90
22838;DHT22;11585;51.450;-0.240;2023-05-19T03:57:23;15.00;99.90
22838;DHT22;11585;51.450;-0.240;2023-05-19T03:59:52;15.00;99.90
22838;DHT22;11585;51.450;-0.240;2023-05-19T04:02:17;15.00;99.90
22838;DHT22;11585;51.450;-0.240;2023-05-19T04:04:46;15.00;99.90
22838;DHT22;11585;51.450;-0.240;2023-05-19T04:07:11;15.00;99.90
22838;DHT22;11585;51.450;-0.240;2023-05-19T04:12:40;14.90;99.90
22838;DHT22;11585;51.450;-0.240;2023-05-19T04:15:06;14.90;99.90
22838;DHT22;11585;51.450;-0.240;2023-05-19T04:17:32;14.90;99.90
22838;DHT22;11585;51.450;-0.240;2023-05-19T04:20:17;14.90;99.90
22838;DHT22;11585;51.450;-0.240;2023-05-19T04:22:43;14.90;99.90
22838;DHT22;11585;51.450;-0.240;2023-05-19T04:25:11;14.90;99.90
22838;DHT22;11585;51.450;-0.240;2023-05-19T04:27:37;14.90;99.90
22838;DHT22;11585;51.450;-0.240;2023-05-19T04:30:04;14.90;99.90
22838;DHT22;11585;51.450;-0.240;2023-05-19T04:32:33;14.90;99.90
22838;DHT22;11585;51.450;-0.240;2023-05-19T04:35:01;14.90;99.90
22838;DHT22;11585;51.450;-0.240;2023-05-19T04:37:27;14.90;99.90
22838;DHT22;11585;51.450;-0.240;2023-05-19T04:40:13;14.80;99.90
22838;DHT22;11585;51.450;-0.240;2023-05-19T04:42:38;14.90;99.90
22838;DHT22;11585;51.450;-0.240;2023-05-19T04:45:06;14.80;99.90
22838;DHT22;11585;51.450;-0.240;2023-05-19T04:47:33;14.80;99.90
22838;DHT22;11585;51.450;-0.240;2023-05-19T04:52:49;14.80;99.90
22838;DHT22;11585;51.450;-0.240;2023-05-19T04:55:14;14.80;99.90
22838;DHT22;11585;51.450;-0.240;2023-05-19T04:57:41;14.80;99.90
22838;DHT22;11585;51.450;-0.240;2023-05-19T05:00:16;14.80;99.90
22838;DHT22;11585;51.450;-0.240;2023-05-19T05:02:43;14.80;99.90
22838;DHT22;11585;51.450;-0.240;2023-05-19T05:05:08;14.80;99.90
22838;DHT22;11585;51.450;-0.240;2023-05-19T05:07:34;14.80;99.90
22838;DHT22;11585;51.450;-0.240;2023-05-19T05:10:19;14.80;99.90
22838;DHT22;11585;51.450;-0.240;2023-05-19T05:12:45;14.80;99.90
22838;DHT22;11585;51.450;-0.240;2023-05-19T05:15:11;14.80;99.90
22838;DHT22;11585;51.450;-0.240;2023-05-19T05:17:37;14.80;99.90
22838;DHT22;11585;51.450;-0.240;2023-05-19T05:23:07;14.80;99.90
22838;DHT22;11585;51.450;-0.240;2023-05-19T05:25:34;14.70;99.90
22838;DHT22;11585;51.450;-0.240;2023-05-19T05:28:00;14.70;99.90
22838;DHT22;11585;51.450;-0.240;2023-05-19T05:30:32;14.70;99.90
22838;DHT22;11585;51.450;-0.240;2023-05-19T05:33:01;14.70;99.90
22838;DHT22;11585;51.450;-0.240;2023-05-19T05:35:27;14.70;99.90
22838;DHT22;11585;51.450;-0.240;2023-05-19T05:37:53;14.70;99.90
22838;DHT22;11585;51.450;-0.240;2023-05-19T05:40:24;14.80;99.90
22838;DHT22;11585;51.450;-0.240;2023-05-19T05:42:49;14.70;99.90
22838;DHT22;11585;51.450;-0.240;2023-05-19T05:45:15;14.70;99.90
22838;DHT22;11585;51.450;-0.240;2023-05-19T05:47:41;14.70;99.90
22838;DHT22;11585;51.450;-0.240;2023-05-19T05:50:09;14.70;99.90
22838;DHT22;11585;51.450;-0.240;2023-05-19T05:52:35;14.70;99.90
22838;DHT22;11585;51.450;-0.240;2023-05-19T05:55:03;14.70;99.90
22838;DHT22;11585;51.450;-0.240;2023-05-19T05:57:29;14.70;99.90
22838;DHT22;11585;51.450;-0.240;2023-05-19T06:02:45;14.70;99.90
22838;DHT22;11585;51.450;-0.240;2023-05-19T06:05:11;14.80;99.90
22838;DHT22;11585;51.450;-0.240;2023-05-19T06:07:38;14.80;99.90
22838;DHT22;11585;51.450;-0.240;2023-05-19T06:10:05;14.70;99.90
22838;DHT22;11585;51.450;-0.240;2023-05-19T06:12:31;14.80;99.90
22838;DHT22;11585;51.450;-0.240;2023-05-19T06:14:57;14.80;99.90
22838;DHT22;11585;51.450;-0.240;2023-05-19T06:17:22;14.80;99.90
22838;DHT22;11585;51.450;-0.240;2023-05-19T06:23:10;14.80;99.90
22838;DHT22;11585;51.450;-0.240;2023-05-19T06:31:46;14.80;99.90
22838;DHT22;11585;51.450;-0.240;2023-05-19T06:34:12;14.80;99.90
22838;DHT22;11585;51.450;-0.240;2023-05-19T06:36:41;14.80;99.90
22838;DHT22;11585;51.450;-0.240;2023-05-19T06:42:29;14.90;99.90
22838;DHT22;11585;51.450;-0.240;2023-05-19T06:45:00;14.90;99.90
22838;DHT22;11585;51.450;-0.240;2023-05-19T06:47:26;14.90;99.90
22838;DHT22;11585;51.450;-0.240;2023-05-19T06:49:52;14.90;99.90
22838;DHT22;11585;51.450;-0.240;2023-05-19T06:52:23;14.90;99.90
22838;DHT22;11585;51.450;-0.240;2023-05-19T06:54:49;14.90;99.90
22838;DHT22;11585;51.450;-0.240;2023-05-19T06:57:15;14.90;99.90
22838;DHT22;11585;51.450;-0.240;2023-05-19T07:06:08;14.90;99.90
22838;DHT22;11585;51.450;-0.240;2023-05-19T07:08:55;14.90;99.90
22838;DHT22;11585;51.450;-0.240;2023-05-19T07:11:21;15.00;99.90
22838;DHT22;11585;51.450;-0.240;2023-05-19T07:13:46;15.00;99.90
22838;DHT22;11585;51.450;-0.240;2023-05-19T07:16:12;15.00;99.90
22838;DHT22;11585;51.450;-0.240;2023-05-19T07:19:04;15.00;99.90
22838;DHT22;11585;51.450;-0.240;2023-05-19T07:21:29;15.00;99.90
22838;DHT22;11585;51.450;-0.240;2023-05-19T07:23:55;15.00;99.90
22838;DHT22;11585;51.450;-0.240;2023-05-19T07:26:21;15.00;99.90
22838;DHT22;11585;51.450;-0.240;2023-05-19T07:28:47;15.10;99.90
22838;DHT22;11585;51.450;-0.240;2023-05-19T07:31:12;15.00;99.90
22838;DHT22;11585;51.450;-0.240;2023-05-19T07:33:39;15.10;99.90
22838;DHT22;11585;51.450;-0.240;2023-05-19T07:36:05;15.10;99.90
22838;DHT22;11585;51.450;-0.240;2023-05-19T07:41:54;15.10;99.90
22838;DHT22;11585;51.450;-0.240;2023-05-19T07:44:20;15.10;99.90
22838;DHT22;11585;51.450;-0.240;2023-05-19T07:46:46;15.10;99.90
22838;DHT22;11585;51.450;-0.240;2023-05-19T07:52:34;15.20;99.90
22838;DHT22;11585;51.450;-0.240;2023-05-19T07:54:59;15.20;99.90
22838;DHT22;11585;51.450;-0.240;2023-05-19T07:57:25;15.20;99.90
22838;DHT22;11585;51.450;-0.240;2023-05-19T08:00:11;15.20;99.90
22838;DHT22;11585;51.450;-0.240;2023-05-19T08:02:37;15.20;99.90
22838;DHT22;11585;51.450;-0.240;2023-05-19T08:05:03;15.30;99.90
22838;DHT22;11585;51.450;-0.240;2023-05-19T08:07:29;15.30;99.90
22838;DHT22;11585;51.450;-0.240;2023-05-19T08:13:16;15.40;99.90
22838;DHT22;11585;51.450;-0.240;2023-05-19T08:15:42;15.40;99.90
22838;DHT22;11585;51.450;-0.240;2023-05-19T08:18:08;15.40;99.90
22838;DHT22;11585;51.450;-0.240;2023-05-19T08:24:14;15.50;99.90
22838;DHT22;11585;51.450;-0.240;2023-05-19T08:26:40;15.50;99.90
22838;DHT22;11585;51.450;-0.240;2023-05-19T08:29:09;15.50;99.90
22838;DHT22;11585;51.450;-0.240;2023-05-19T08:31:34;15.50;99.90
22838;DHT22;11585;51.450;-0.240;2023-05-19T08:34:00;15.50;99.90
22838;DHT22;11585;51.450;-0.240;2023-05-19T08:36:26;15.50;99.90
22838;DHT22;11585;51.450;-0.240;2023-05-19T08:39:13;15.60;99.90
22838;DHT22;11585;51.450;-0.240;2023-05-19T08:41:40;15.60;99.90
22838;DHT22;11585;51.450;-0.240;2023-05-19T08:44:06;15.60;99.90
22838;DHT22;11585;51.450;-0.240;2023-05-19T08:46:31;15.60;99.90
22838;DHT22;11585;51.450;-0.240;2023-05-19T08:49:16;15.70;99.90
22838;DHT22;11585;51.450;-0.240;2023-05-19T08:51:54;15.70;99.90
22838;DHT22;11585;51.450;-0.240;2023-05-19T08:54:24;15.70;99.90
22838;DHT22;11585;51.450;-0.240;2023-05-19T08:56:49;15.70;99.90
22838;DHT22;11585;51.450;-0.240;2023-05-19T09:02:38;15.80;99.90
22838;DHT22;11585;51.450;-0.240;2023-05-19T09:05:05;15.80;99.90
22838;DHT22;11585;51.450;-0.240;2023-05-19T09:07:31;15.80;99.90
22838;DHT22;11585;51.450;-0.240;2023-05-19T09:13:04;15.80;99.90
22838;DHT22;11585;51.450;-0.240;2023-05-19T09:15:30;15.80;99.90
22838;DHT22;11585;51.450;-0.240;2023-05-19T09:18:11;15.80;99.90
22838;DHT22;11585;51.450;-0.240;2023-05-19T09:20:42;15.90;99.90
22838;DHT22;11585;51.450;-0.240;2023-05-19T09:23:15;15.90;99.90
22838;DHT22;11585;51.450;-0.240;2023-05-19T09:25:48;15.90;99.90
22838;DHT22;11585;51.450;-0.240;2023-05-19T09:28:22;15.90;99.90
22838;DHT22;11585;51.450;-0.240;2023-05-19T09:30:48;15.90;99.90
22838;DHT22;11585;51.450;-0.240;2023-05-19T09:33:18;16.00;99.90
22838;DHT22;11585;51.450;-0.240;2023-05-19T09:35:46;16.00;99.90
22838;DHT22;11585;51.450;-0.240;2023-05-19T09:38:16;16.00;99.90
22838;DHT22;11585;51.450;-0.240;2023-05-19T09:40:43;16.00;99.90
22838;DHT22;11585;51.450;-0.240;2023-05-19T09:43:09;16.00;99.90
22838;DHT22;11585;51.450;-0.240;2023-05-19T09:45:34;16.00;99.90
22838;DHT22;11585;51.450;-0.240;2023-05-19T09:48:03;16.00;99.90
22838;DHT22;11585;51.450;-0.240;2023-05-19T09:50:31;16.00;99.90
22838;DHT22;11585;51.450;-0.240;2023-05-19T09:52:58;16.10;99.90
22838;DHT22;11585;51.450;-0.240;2023-05-19T09:55:26;16.10;99.90
22838;DHT22;11585;51.450;-0.240;2023-05-19T09:57:54;16.10;99.90
22838;DHT22;11585;51.450;-0.240;2023-05-19T10:03:43;16.10;99.90
22838;DHT22;11585;51.450;-0.240;2023-05-19T10:09:35;16.20;99.90
22838;DHT22;11585;51.450;-0.240;2023-05-19T10:12:02;16.20;99.90
22838;DHT22;11585;51.450;-0.240;2023-05-19T10:14:29;16.20;99.90
22838;DHT22;11585;51.450;-0.240;2023-05-19T10:16:56;16.20;99.90
22838;DHT22;11585;51.450;-0.240;2023-05-19T10:22:45;16.30;99.90
22838;DHT22;11585;51.450;-0.240;2023-05-19T10:25:13;16.30;99.90
22838;DHT22;11585;51.450;-0.240;2023-05-19T10:27:55;16.30;99.90
22838;DHT22;11585;51.450;-0.240;2023-05-19T10:30:34;16.30;99.90
22838;DHT22;11585;51.450;-0.240;2023-05-19T10:33:03;16.30;99.90
22838;DHT22;11585;51.450;-0.240;2023-05-19T10:35:53;16.30;99.90
22838;DHT22;11585;51.450;-0.240;2023-05-19T10:41:57;16.40;99.90
22838;DHT22;11585;51.450;-0.240;2023-05-19T10:47:28;16.50;99.90
22838;DHT22;11585;51.450;-0.240;2023-05-19T10:49:54;16.50;99.90
22838;DHT22;11585;51.450;-0.240;2023-05-19T10:52:24;16.50;99.90
22838;DHT22;11585;51.450;-0.240;2023-05-19T10:54:55;16.50;99.90
22838;DHT22;11585;51.450;-0.240;2023-05-19T10:57:26;16.60;99.90
22838;DHT22;11585;51.450;-0.240;2023-05-19T10:59:55;16.60;99.90
22838;DHT22;11585;51.450;-0.240;2023-05-19T11:05:14;16.60;99.90
22838;DHT22;11585;51.450;-0.240;2023-05-19T11:07:54;16.70;99.90
22838;DHT22;11585;51.450;-0.240;2023-05-19T11:10:42;16.70;99.90
22838;DHT22;11585;51.450;-0.240;2023-05-19T11:13:18;16.70;99.90
22838;DHT22;11585;51.450;-0.240;2023-05-19T11:15:44;16.80;99.90
22838;DHT22;11585;51.450;-0.240;2023-05-19T11:18:13;16.80;99.90
22838;DHT22;11585;51.450;-0.240;2023-05-19T11:20:40;16.80;99.90
22838;DHT22;11585;51.450;-0.240;2023-05-19T11:23:14;16.80;99.90
22838;DHT22;11585;51.450;-0.240;2023-05-19T11:28:11;16.90;99.90
22838;DHT22;11585;51.450;-0.240;2023-05-19T11:30:40;16.90;99.90
22838;DHT22;11585;51.450;-0.240;2023-05-19T11:33:06;16.90;99.90
22838;DHT22;11585;51.450;-0.240;2023-05-19T11:35:33;17.00;99.90
22838;DHT22;11585;51.450;-0.240;2023-05-19T11:38:00;17.00;99.90
22838;DHT22;11585;51.450;-0.240;2023-05-19T11:40:28;17.00;99.90
22838;DHT22;11585;51.450;-0.240;2023-05-19T11:42:57;17.00;99.90
22838;DHT22;11585;51.450;-0.240;2023-05-19T11:45:27;17.10;99.90
22838;DHT22;11585;51.450;-0.240;2023-05-19T11:47:57;17.10;99.90
22838;DHT22;11585;51.450;-0.240;2023-05-19T11:50:43;17.10;99.90
22838;DHT22;11585;51.450;-0.240;2023-05-19T11:53:12;17.20;99.90
22838;DHT22;11585;51.450;-0.240;2023-05-19T11:55:41;17.20;99.90
22838;DHT22;11585;51.450;-0.240;2023-05-19T11:58:11;17.20;99.90
22838;DHT22;11585;51.450;-0.240;2023-05-19T12:00:41;17.20;99.90
22838;DHT22;11585;51.450;-0.240;2023-05-19T12:03:08;17.30;99.90
22838;DHT22;11585;51.450;-0.240;2023-05-19T12:05:36;17.30;99.90
22838;DHT22;11585;51.450;-0.240;2023-05-19T12:08:04;17.30;99.90
22838;DHT22;11585;51.450;-0.240;2023-05-19T12:10:31;17.30;99.90
22838;DHT22;11585;51.450;-0.240;2023-05-19T12:12:58;17.40;99.90
22838;DHT22;11585;51.450;-0.240;2023-05-19T12:15:24;17.40;99.90
22838;DHT22;11585;51.450;-0.240;2023-05-19T12:17:58;17.40;99.90
22838;DHT22;11585;51.450;-0.240;2023-05-19T12:20:26;17.50;99.90
22838;DHT22;11585;51.450;-0.240;2023-05-19T12:22:54;17.50;99.90
22838;DHT22;11585;51.450;-0.240;2023-05-19T12:25:19;17.50;99.90
22838;DHT22;11585;51.450;-0.240;2023-05-19T12:27:45;17.50;99.90
22838;DHT22;11585;51.450;-0.240;2023-05-19T12:30:23;17.50;99.90
22838;DHT22;11585;51.450;-0.240;2023-05-19T12:32:49;17.60;99.90
22838;DHT22;11585;51.450;-0.240;2023-05-19T12:35:16;17.60;99.90
22838;DHT22;11585;51.450;-0.240;2023-05-19T12:37:42;17.60;99.90
22838;DHT22;11585;51.450;-0.240;2023-05-19T12:40:08;17.60;99.90
22838;DHT22;11585;51.450;-0.240;2023-05-19T12:42:34;17.70;99.90
22838;DHT22;11585;51.450;-0.240;2023-05-19T12:45:01;17.70;99.90
22838;DHT22;11585;51.450;-0.240;2023-05-19T12:47:34;17.70;99.90
22838;DHT22;11585;51.450;-0.240;2023-05-19T12:50:09;17.70;99.90
22838;DHT22;11585;51.450;-0.240;2023-05-19T12:52:48;17.80;99.90
22838;DHT22;11585;51.450;-0.240;2023-05-19T12:55:17;17.80;99.90
22838;DHT22;11585;51.450;-0.240;2023-05-19T12:57:48;17.80;99.90
22838;DHT22;11585;51.450;-0.240;2023-05-19T13:00:17;17.80;99.90
22838;DHT22;11585;51.450;-0.240;2023-05-19T13:03:07;17.80;99.90
22838;DHT22;11585;51.450;-0.240;2023-05-19T13:05:43;17.90;99.90
22838;DHT22;11585;51.450;-0.240;2023-05-19T13:08:11;17.90;99.90
22838;DHT22;11585;51.450;-0.240;2023-05-19T13:10:39;17.90;99.90
22838;DHT22;11585;51.450;-0.240;2023-05-19T13:13:07;17.90;99.90
22838;DHT22;11585;51.450;-0.240;2023-05-19T13:15:37;17.90;99.90
22838;DHT22;11585;51.450;-0.240;2023-05-19T13:18:05;17.90;99.90
22838;DHT22;11585;51.450;-0.240;2023-05-19T13:20:51;18.00;99.90
22838;DHT22;11585;51.450;-0.240;2023-05-19T13:23:17;18.00;99.90
22838;DHT22;11585;51.450;-0.240;2023-05-19T13:25:46;18.00;99.90
22838;DHT22;11585;51.450;-0.240;2023-05-19T13:28:15;18.00;99.90
22838;DHT22;11585;51.450;-0.240;2023-05-19T13:30:42;18.00;99.90
22838;DHT22;11585;51.450;-0.240;2023-05-19T13:33:08;18.00;99.90
22838;DHT22;11585;51.450;-0.240;2023-05-19T13:35:34;18.00;99.90
22838;DHT22;11585;51.450;-0.240;2023-05-19T13:38:06;18.00;99.90
22838;DHT22;11585;51.450;-0.240;2023-05-19T13:40:36;18.10;99.90
22838;DHT22;11585;51.450;-0.240;2023-05-19T13:43:02;18.10;99.90
22838;DHT22;11585;51.450;-0.240;2023-05-19T13:45:31;18.10;99.90
22838;DHT22;11585;51.450;-0.240;2023-05-19T13:48:00;18.10;99.90
22838;DHT22;11585;51.450;-0.240;2023-05-19T13:50:26;18.10;99.90
22838;DHT22;11585;51.450;-0.240;2023-05-19T13:52:52;18.10;99.90
22838;DHT22;11585;51.450;-0.240;2023-05-19T13:55:18;18.10;99.90
22838;DHT22;11585;51.450;-0.240;2023-05-19T13:57:47;18.10;99.90
22838;DHT22;11585;51.450;-0.240;2023-05-19T14:00:21;18.10;99.90
22838;DHT22;11585;51.450;-0.240;2023-05-19T14:02:49;18.10;99.90
22838;DHT22;11585;51.450;-0.240;2023-05-19T14:05:15;18.10;99.90
22838;DHT22;11585;51.450;-0.240;2023-05-19T14:07:40;18.20;99.90
22838;DHT22;11585;51.450;-0.240;2023-05-19T14:10:07;18.20;99.90
22838;DHT22;11585;51.450;-0.240;2023-05-19T14:12:34;18.20;99.90
22838;DHT22;11585;51.450;-0.240;2023-05-19T14:15:04;18.20;99.90
22838;DHT22;11585;51.450;-0.240;2023-05-19T14:17:30;18.20;99.90
22838;DHT22;11585;51.450;-0.240;2023-05-19T14:19:56;18.20;99.90
22838;DHT22;11585;51.450;-0.240;2023-05-19T14:22:22;18.20;99.90
22838;DHT22;11585;51.450;-0.240;2023-05-19T14:24:50;18.20;99.90
22838;DHT22;11585;51.450;-0.240;2023-05-19T14:27:21;18.20;99.90
22838;DHT22;11585;51.450;-0.240;2023-05-19T14:29:49;18.20;99.90
22838;DHT22;11585;51.450;-0.240;2023-05-19T14:32:15;18.20;99.90
22838;DHT22;11585;51.450;-0.240;2023-05-19T14:34:41;18.20;99.90
22838;DHT22;11585;51.450;-0.240;2023-05-19T14:37:06;18.20;99.90
22838;DHT22;11585;51.450;-0.240;2023-05-19T14:39:34;18.20;99.90
22838;DHT22;11585;51.450;-0.240;2023-05-19T14:42:02;18.20;99.90
22838;DHT22;11585;51.450;-0.240;2023-05-19T14:44:31;18.30;99.90
22838;DHT22;11585;51.450;-0.240;2023-05-19T14:47:00;18.30;99.90
22838;DHT22;11585;51.450;-0.240;2023-05-19T14:49:28;18.30;99.90
22838;DHT22;11585;51.450;-0.240;2023-05-19T14:51:54;18.30;99.90
22838;DHT22;11585;51.450;-0.240;2023-05-19T14:54:20;18.30;99.90
22838;DHT22;11585;51.450;-0.240;2023-05-19T14:56:46;18.30;99.90
22838;DHT22;11585;51.450;-0.240;2023-05-19T14:59:12;18.30;99.90
22838;DHT22;11585;51.450;-0.240;2023-05-19T15:01:38;18.30;99.90
22838;DHT22;11585;51.450;-0.240;2023-05-19T15:04:04;18.30;99.90
22838;DHT22;11585;51.450;-0.240;2023-05-19T15:06:29;18.30;99.90
22838;DHT22;11585;51.450;-0.240;2023-05-19T15:08:55;18.30;99.90
22838;DHT22;11585;51.450;-0.240;2023-05-19T15:11:21;18.30;99.90
22838;DHT22;11585;51.450;-0.240;2023-05-19T15:13:47;18.40;99.90
22838;DHT22;11585;51.450;-0.240;2023-05-19T15:16:12;18.30;99.90
22838;DHT22;11585;51.450;-0.240;2023-05-19T15:18:39;18.40;99.90
22838;DHT22;11585;51.450;-0.240;2023-05-19T15:21:05;18.30;99.90
22838;DHT22;11585;51.450;-0.240;2023-05-19T15:23:30;18.40;99.90
22838;DHT22;11585;51.450;-0.240;2023-05-19T15:25:56;18.40;99.90
22838;DHT22;11585;51.450;-0.240;2023-05-19T15:28:22;18.40;99.90
22838;DHT22;11585;51.450;-0.240;2023-05-19T15:30:47;18.40;99.90
22838;DHT22;11585;51.450;-0.240;2023-05-19T15:33:16;18.40;99.90
22838;DHT22;11585;51.450;-0.240;2023-05-19T15:35:41;18.40;99.90
22838;DHT22;11585;51.450;-0.240;2023-05-19T15:38:07;18.40;99.90
22838;DHT22;11585;51.450;-0.240;2023-05-19T15:40:33;18.40;99.90
22838;DHT22;11585;51.450;-0.240;2023-05-19T15:42:58;18.40;99.90
22838;DHT22;11585;51.450;-0.240;2023-05-19T15:45:24;18.50;99.90
22838;DHT22;11585;51.450;-0.240;2023-05-19T15:47:50;18.50;99.90
22838;DHT22;11585;51.450;-0.240;2023-05-19T15:50:16;18.50;99.90
22838;DHT22;11585;51.450;-0.240;2023-05-19T15:52:44;18.50;99.90
22838;DHT22;11585;51.450;-0.240;2023-05-19T15:55:10;18.50;99.90
22838;DHT22;11585;51.450;-0.240;2023-05-19T15:57:35;18.60;99.90
22838;DHT22;11585;51.450;-0.240;2023-05-19T16:00:02;18.60;99.90
22838;DHT22;11585;51.450;-0.240;2023-05-19T16:02:28;18.60;99.90
22838;DHT22;11585;51.450;-0.240;2023-05-19T16:04:54;18.60;99.90
22838;DHT22;11585;51.450;-0.240;2023-05-19T16:07:19;18.60;99.90
22838;DHT22;11585;51.450;-0.240;2023-05-19T16:09:49;18.70;99.90
22838;DHT22;11585;51.450;-0.240;2023-05-19T16:12:14;18.60;99.90
22838;DHT22;11585;51.450;-0.240;2023-05-19T16:14:40;18.70;99.90
22838;DHT22;11585;51.450;-0.240;2023-05-19T16:17:06;18.70;99.90
22838;DHT22;11585;51.450;-0.240;2023-05-19T16:19:54;18.70;99.90
22838;DHT22;11585;51.450;-0.240;2023-05-19T16:22:20;18.70;99.90
22838;DHT22;11585;51.450;-0.240;2023-05-19T16:24:49;18.70;99.90
22838;DHT22;11585;51.450;-0.240;2023-05-19T16:27:15;18.70;99.90
22838;DHT22;11585;51.450;-0.240;2023-05-19T16:29:41;18.70;99.90
22838;DHT22;11585;51.450;-0.240;2023-05-19T16:32:07;18.70;99.90
22838;DHT22;11585;51.450;-0.240;2023-05-19T16:34:32;18.70;99.90
22838;DHT22;11585;51.450;-0.240;2023-05-19T16:36:58;18.70;99.90
22838;DHT22;11585;51.450;-0.240;2023-05-19T16:39:25;18.80;99.90
22838;DHT22;11585;51.450;-0.240;2023-05-19T16:41:53;18.70;99.90
22838;DHT22;11585;51.450;-0.240;2023-05-19T16:44:19;18.70;99.90
22838;DHT22;11585;51.450;-0.240;2023-05-19T16:46:45;18.80;99.90
22838;DHT22;11585;51.450;-0.240;2023-05-19T16:49:11;18.70;99.90
22838;DHT22;11585;51.450;-0.240;2023-05-19T16:51:37;18.70;99.90
22838;DHT22;11585;51.450;-0.240;2023-05-19T16:54:03;18.70;99.90
22838;DHT22;11585;51.450;-0.240;2023-05-19T16:56:28;18.70;99.90
22838;DHT22;11585;51.450;-0.240;2023-05-19T16:58:59;18.70;99.90
22838;DHT22;11585;51.450;-0.240;2023-05-19T17:01:25;18.80;99.90
22838;DHT22;11585;51.450;-0.240;2023-05-19T17:03:50;18.70;99.90
22838;DHT22;11585;51.450;-0.240;2023-05-19T17:06:16;18.60;99.90